Terminal Aerodrome Forecast
Issued by NWS Mt. Holly, NJ

Home | Current Version | Previous Version | Text Only | Print | Product List | Glossary On
Versions: 1 2 3 4 5 6 7 8 9 10 11 12 13 14 15 16 17 18 19 20 21 22 23
328
FTUS41 KPHI 301137
TAFACY
TAF
KACY 301137Z 3012/0112 06018G28KT P6SM -RA OVC008
      TEMPO 3012/3015 1SM RADZ BR OVC006
     FM010000 04011KT P6SM OVC006=

USA.gov is the U.S. government's official web portal to all federal, state and local government web resources and services.